Deferiet, New York
Current Conditions -  °F | °C
As of 7:58 AM on Saturday 20 Dec 2014 (Local Time) from KGTB Reporting Station
Clear Clear  
Wind Chill:   Ceiling: Unl
Heat Index:   Visibility: 10mi
Dew Point:   Wind: 3mph
Humidity: 85%   Direction: 220°SW
Pressure: 30.29"   Gusts: NA
Location:  44.04°N, 75.68°W
Report Text: KGTB 201258Z AUTO 22003KT 10SM CLR M13/M15 A3029 RMK AO2 SLP273 T11301151
Loading
Personal Weather Stations






























Interactive Weather Map New forecast layout! Learn more

10-Day Weather Forecast

Advertisements
Track Severe Weather on mobile